createdAt,value
2022-12-01T09:38:36.889Z,4.05
2022-12-01T09:41:17.174Z,3.60
2022-12-01T09:43:56.579Z,3.15
2022-12-01T09:46:26.574Z,3.15
2022-12-01T09:48:57.325Z,4.20
2022-12-01T09:51:26.529Z,3.97
2022-12-01T09:53:56.735Z,3.35
2022-12-01T09:56:29.283Z,3.65
2022-12-01T09:58:58.903Z,3.05
2022-12-01T10:01:39.839Z,3.95
2022-12-01T10:04:14.082Z,3.60
2022-12-01T10:06:48.712Z,3.42
2022-12-01T10:09:41.274Z,3.38
2022-12-01T10:12:14.596Z,3.97
2022-12-01T10:15:15.687Z,3.58
2022-12-01T10:17:55.990Z,3.75
2022-12-01T10:20:31.848Z,2.85
2022-12-01T10:23:40.470Z,3.55
2022-12-01T10:26:26.438Z,3.80
2022-12-01T10:29:04.279Z,2.90
2022-12-01T10:31:34.881Z,3.42
2022-12-01T10:34:04.215Z,3.40
2022-12-01T10:36:31.562Z,2.80
2022-12-01T10:38:58.667Z,3.63
2022-12-01T10:41:26.317Z,3.25
2022-12-01T10:43:57.787Z,3.53
2022-12-01T10:46:35.157Z,2.90
2022-12-01T10:49:08.931Z,2.83
2022-12-01T10:51:47.401Z,2.63
2022-12-01T10:54:14.429Z,3.28
2022-12-01T10:56:41.959Z,3.13
2022-12-01T10:59:20.919Z,2.28
2022-12-01T11:01:48.294Z,2.50
2022-12-01T11:05:06.678Z,2.40
2022-12-01T11:07:34.984Z,2.50
2022-12-01T11:10:22.228Z,2.97
2022-12-01T11:13:13.540Z,2.75
2022-12-01T11:15:41.487Z,3.25
2022-12-01T11:18:30.821Z,2.85
2022-12-01T11:21:14.280Z,2.90
2022-12-01T11:23:50.017Z,2.58
2022-12-01T11:26:20.943Z,2.40
2022-12-01T11:29:02.605Z,1.52
2022-12-01T11:31:56.965Z,1.58
2022-12-01T11:34:29.023Z,2.28
2022-12-01T11:36:57.926Z,2.28
2022-12-01T11:39:35.464Z,2.17
2022-12-01T11:42:08.093Z,2.80
2022-12-01T11:44:51.004Z,2.22
2022-12-01T11:47:23.608Z,3.28
2022-12-01T11:50:00.000Z,2.50
2022-12-01T11:52:36.576Z,2.45
2022-12-01T11:55:12.933Z,2.92
2022-12-01T11:58:05.481Z,3.03
2022-12-01T12:00:54.091Z,2.85
2022-12-01T12:03:28.534Z,2.67
2022-12-01T12:06:38.935Z,1.67
2022-12-01T12:09:08.979Z,2.42
2022-12-01T12:11:57.607Z,2.25
2022-12-01T12:14:32.842Z,2.78
2022-12-01T12:17:32.193Z,3.08
2022-12-01T12:20:20.549Z,2.88
2022-12-01T12:23:18.587Z,2.00
2022-12-01T12:25:52.690Z,1.20
2022-12-01T12:28:38.331Z,0.90
2022-12-01T12:31:33.575Z,0.85
2022-12-01T12:34:23.022Z,0.82
2022-12-01T12:37:19.694Z,1.05
2022-12-01T12:39:54.102Z,1.02
2022-12-01T12:42:39.940Z,1.33
2022-12-01T12:45:39.672Z,1.27
2022-12-01T12:48:15.295Z,1.73
2022-12-01T12:50:48.955Z,0.93
2022-12-01T12:53:24.875Z,1.13
2022-12-01T12:58:26.033Z,0.55
2022-12-01T13:01:24.857Z,0.60
2022-12-01T13:03:56.298Z,0.50
2022-12-01T13:06:45.051Z,0.30
2022-12-01T13:09:20.034Z,0.22
2022-12-01T13:11:53.305Z,0.47
2022-12-01T13:14:30.900Z,0.38
2022-12-01T13:17:02.615Z,0.60
2022-12-01T13:19:31.420Z,0.32
2022-12-01T13:21:58.877Z,0.63
2022-12-01T13:24:28.847Z,0.30
2022-12-01T13:27:05.730Z,0.20
2022-12-01T13:29:56.635Z,0.57
2022-12-01T13:32:44.035Z,0.47
2022-12-01T13:35:25.374Z,0.40
2022-12-01T13:37:53.189Z,1.05
2022-12-01T13:40:26.223Z,0.47
2022-12-01T13:43:07.022Z,0.65
2022-12-01T13:45:38.034Z,0.57
2022-12-01T13:48:06.316Z,0.50
2022-12-01T13:51:30.493Z,0.50
2022-12-01T13:54:26.856Z,0.40
2022-12-01T13:57:11.640Z,0.45
2022-12-01T14:00:03.084Z,0.47
2022-12-01T14:02:43.648Z,0.68
2022-12-01T14:05:27.777Z,0.20
2022-12-01T14:07:58.381Z,0.20
2022-12-01T14:10:31.618Z,0.20
2022-12-01T14:13:05.036Z,0.20
2022-12-01T14:15:43.316Z,0.22
2022-12-01T14:18:36.455Z,0.30
2022-12-01T14:21:10.823Z,0.40
2022-12-01T14:24:05.502Z,0.38
2022-12-01T14:27:00.412Z,0.60
2022-12-01T14:29:46.770Z,0.93
2022-12-01T14:32:22.589Z,0.77
2022-12-01T14:35:05.125Z,0.32
2022-12-01T14:38:03.097Z,0.45
2022-12-01T14:41:01.486Z,0.20
2022-12-01T14:43:53.776Z,0.35
2022-12-01T14:46:34.418Z,0.35
2022-12-01T14:49:03.413Z,0.60
2022-12-01T14:51:33.155Z,0.57
2022-12-01T14:54:02.871Z,0.52
2022-12-01T14:56:35.223Z,0.40
2022-12-01T14:59:24.896Z,0.70
2022-12-01T15:02:10.323Z,1.17
2022-12-01T15:05:13.364Z,0.40
2022-12-01T15:07:42.384Z,0.93
2022-12-01T15:10:23.496Z,0.70
2022-12-01T15:12:53.725Z,0.40
2022-12-01T15:15:27.678Z,0.55
2022-12-01T15:18:01.911Z,0.95
2022-12-01T15:20:34.234Z,0.60
2022-12-01T15:23:03.115Z,0.75
2022-12-01T15:25:38.005Z,1.27
2022-12-01T15:28:14.759Z,1.30
2022-12-01T15:30:44.867Z,1.38
2022-12-01T15:33:26.942Z,0.40
2022-12-01T15:35:58.215Z,0.55
2022-12-01T15:38:31.132Z,0.88
2022-12-01T15:43:59.255Z,1.08
2022-12-01T15:46:33.033Z,0.88
2022-12-01T15:49:50.458Z,0.98
2022-12-01T15:52:24.902Z,1.23
2022-12-01T15:54:52.669Z,1.30
2022-12-01T15:57:24.199Z,1.55
2022-12-01T15:59:59.600Z,1.00
